Time;durP1;ratioP1;P1;durP2;ratioP2;P2;SDS_P1;SDS_P2;PMS_P1;PMS_P2;Temp;Humidity;BMP_temperature;BMP_pressure;BME280_temperature;BME280_humidity;BME280_pressure;Samples;Min_cycle;Max_cycle;Signal;HPM_P1;HPM_P2
2022/09/12 00:01:20;;;;;;;2.08;0.80;;;18.80;99.50;;;;;;5093352;28;20024;-71
2022/09/12 00:03:46;;;;;;;1.75;0.75;;;18.70;99.50;;;;;;5096650;28;20203;-72
2022/09/12 00:06:29;;;;;;;1.13;0.60;;;18.70;99.60;;;;;;5095019;28;20562;-72
2022/09/12 00:08:57;;;;;;;3.85;0.80;;;18.70;99.50;;;;;;5099240;28;20428;-72
2022/09/12 00:11:23;;;;;;;2.60;0.55;;;18.70;99.60;;;;;;5094157;28;20486;-72
2022/09/12 00:13:49;;;;;;;1.65;0.60;;;18.70;99.60;;;;;;5102017;28;20024;-72
2022/09/12 00:16:24;;;;;;;1.30;0.68;;;18.60;99.70;;;;;;5094239;28;20576;-72
2022/09/12 00:18:51;;;;;;;1.00;0.75;;;18.50;99.90;;;;;;5098203;28;20375;-72
2022/09/12 00:21:17;;;;;;;0.95;0.65;;;18.50;99.70;;;;;;5095362;28;20016;-72
2022/09/12 00:23:43;;;;;;;0.80;0.60;;;18.50;99.80;;;;;;5101690;28;20024;-72
2022/09/12 00:26:09;;;;;;;1.48;0.57;;;18.50;99.80;;;;;;5094051;28;20367;-72
2022/09/12 00:28:37;;;;;;;0.70;0.65;;;18.50;99.90;;;;;;5102787;28;20456;-71
2022/09/12 00:31:11;;;;;;;0.70;0.70;;;18.40;99.80;;;;;;5092877;28;20089;-72
2022/09/12 00:33:37;;;;;;;1.58;0.80;;;18.40;99.90;;;;;;5102129;28;20397;-72
2022/09/12 00:36:25;;;;;;;1.67;0.85;;;18.40;99.90;;;;;;5092573;28;20024;-71
2022/09/12 00:38:52;;;;;;;0.50;0.50;;;18.40;99.80;;;;;;5096086;28;20043;-72
2022/09/12 00:41:19;;;;;;;2.42;0.95;;;18.50;99.60;;;;;;5077744;28;20020;-72
2022/09/12 00:43:48;;;;;;;2.72;0.95;;;18.50;99.40;;;;;;5097023;28;20034;-72
2022/09/12 00:46:23;;;;;;;1.42;0.50;;;18.60;99.10;;;;;;5093120;28;20024;-71
2022/09/12 00:48:55;;;;;;;0.50;0.50;;;18.60;99.10;;;;;;5097321;28;20131;-73
2022/09/12 00:51:22;;;;;;;1.90;0.57;;;18.70;98.70;;;;;;5093101;28;20032;-72
2022/09/12 00:53:50;;;;;;;2.40;0.68;;;18.70;99.00;;;;;;5100965;28;20070;-72
2022/09/12 00:56:18;;;;;;;1.33;0.57;;;18.80;98.60;;;;;;5094424;28;20028;-72
2022/09/12 00:58:54;;;;;;;1.58;0.52;;;18.80;98.80;;;;;;5096473;28;20067;-71
2022/09/12 01:01:20;;;;;;;0.73;0.60;;;18.80;98.50;;;;;;5094478;28;20032;-72
2022/09/12 01:03:46;;;;;;;0.82;0.70;;;18.80;98.30;;;;;;5100878;28;20032;-71
2022/09/12 01:06:20;;;;;;;0.60;0.60;;;18.80;98.10;;;;;;5093705;28;20068;-72
2022/09/12 01:08:47;;;;;;;0.50;0.50;;;18.80;98.30;;;;;;5085390;28;20039;-71
2022/09/12 01:11:14;;;;;;;0.80;0.70;;;18.80;98.30;;;;;;5109613;28;20036;-72
2022/09/12 01:13:40;;;;;;;1.77;0.50;;;18.80;97.90;;;;;;5100844;28;20494;-72
2022/09/12 01:16:07;;;;;;;1.20;0.70;;;18.90;98.00;;;;;;5092861;28;20024;-72
2022/09/12 01:19:06;;;;;;;1.15;0.70;;;18.80;97.90;;;;;;5101428;28;20015;-72
2022/09/12 01:21:53;;;;;;;0.65;0.60;;;18.90;98.10;;;;;;5108447;28;20046;-72
2022/09/12 01:24:37;;;;;;;2.92;0.73;;;18.90;97.90;;;;;;5093676;28;20070;-72
2022/09/12 01:27:41;;;;;;;0.60;0.60;;;18.90;97.80;;;;;;5104507;28;20028;-72
2022/09/12 01:30:18;;;;;;;1.33;0.65;;;18.90;97.60;;;;;;5092815;28;20636;-72
2022/09/12 01:32:52;;;;;;;0.50;0.50;;;18.90;97.50;;;;;;5101364;28;20055;-71
2022/09/12 01:35:30;;;;;;;1.42;0.57;;;18.90;97.30;;;;;;5091720;28;20024;-71
2022/09/12 01:38:01;;;;;;;2.65;0.50;;;18.90;97.40;;;;;;5102959;28;20072;-72
2022/09/12 01:40:41;;;;;;;1.17;0.70;;;18.90;97.20;;;;;;5111651;28;20103;-71
2022/09/12 01:43:47;;;;;;;1.98;0.70;;;19.00;96.90;;;;;;5100813;28;20421;-72
2022/09/12 01:46:20;;;;;;;0.70;0.50;;;19.00;96.90;;;;;;5078768;28;20040;-72
2022/09/12 01:49:01;;;;;;;6.55;0.63;;;18.90;97.10;;;;;;5095658;28;20490;-72
2022/09/12 01:51:41;;;;;;;2.38;0.55;;;18.90;97.00;;;;;;5093840;28;20038;-72
2022/09/12 01:54:21;;;;;;;0.70;0.40;;;18.90;96.90;;;;;;5100165;28;20089;-71
2022/09/12 01:56:54;;;;;;;3.63;0.60;;;18.90;96.70;;;;;;5093729;28;20038;-72
2022/09/12 01:59:32;;;;;;;1.38;0.70;;;18.90;96.50;;;;;;5094650;28;20035;-72
2022/09/12 02:02:05;;;;;;;1.33;0.60;;;18.90;96.50;;;;;;5095107;28;20441;-72
2022/09/12 02:04:57;;;;;;;1.30;0.60;;;18.90;96.30;;;;;;5096050;28;20474;-72
2022/09/12 02:07:45;;;;;;;2.35;0.55;;;18.90;96.40;;;;;;5096802;28;20431;-71
2022/09/12 02:10:22;;;;;;;0.60;0.60;;;19.00;96.60;;;;;;5110157;28;20093;-72
2022/09/12 02:13:06;;;;;;;1.17;0.60;;;18.90;96.10;;;;;;5105029;28;20020;-72
2022/09/12 02:15:38;;;;;;;0.52;0.50;;;18.90;96.30;;;;;;5070846;28;20418;-72
2022/09/12 02:18:05;;;;;;;0.85;0.50;;;18.90;96.30;;;;;;5101406;28;20077;-72
2022/09/12 02:20:37;;;;;;;1.40;0.40;;;18.90;96.30;;;;;;5089101;28;20048;-72
2022/09/12 02:23:08;;;;;;;0.82;0.52;;;18.90;96.30;;;;;;5102433;28;20246;-72
2022/09/12 02:25:36;;;;;;;2.92;0.93;;;18.90;96.30;;;;;;5090912;28;20028;-71
2022/09/12 02:28:18;;;;;;;0.68;0.50;;;18.90;96.10;;;;;;5102250;28;20047;-71
2022/09/12 02:30:55;;;;;;;0.40;0.35;;;18.90;96.50;;;;;;5090568;28;20047;-71
2022/09/12 02:33:45;;;;;;;1.02;0.40;;;18.90;96.30;;;;;;5096726;28;20012;-72
2022/09/12 02:36:22;;;;;;;1.40;0.70;;;18.90;96.20;;;;;;5109408;28;20118;-72
2022/09/12 02:38:49;;;;;;;0.93;0.45;;;18.90;96.10;;;;;;5096655;28;20059;-72
2022/09/12 02:41:18;;;;;;;1.17;0.60;;;18.80;96.10;;;;;;5096173;28;20105;-72
2022/09/12 02:43:44;;;;;;;1.60;0.70;;;18.80;96.40;;;;;;5099217;28;20035;-72
2022/09/12 02:46:17;;;;;;;0.40;0.40;;;18.80;96.50;;;;;;5096124;28;20084;-72
2022/09/12 02:48:43;;;;;;;1.42;0.43;;;18.70;96.20;;;;;;5103318;28;20411;-71
2022/09/12 02:51:10;;;;;;;1.98;0.60;;;18.70;96.20;;;;;;5095642;28;20051;-72
2022/09/12 02:53:36;;;;;;;0.50;0.50;;;18.80;96.10;;;;;;5108993;28;20431;-72
2022/09/12 02:56:06;;;;;;;2.97;0.40;;;18.70;96.00;;;;;;5113112;28;20417;-72
2022/09/12 02:58:32;;;;;;;2.10;0.50;;;18.70;95.90;;;;;;5101969;28;20020;-72
2022/09/12 03:01:01;;;;;;;1.55;0.40;;;18.70;96.00;;;;;;5103783;28;20494;-72
2022/09/12 03:03:35;;;;;;;0.85;0.50;;;18.80;96.00;;;;;;5105291;28;20027;-72
2022/09/12 03:06:28;;;;;;;3.70;0.50;;;18.80;96.00;;;;;;5094759;28;20024;-71
2022/09/12 03:09:05;;;;;;;1.40;0.60;;;18.80;95.60;;;;;;5061611;28;20043;-72
2022/09/12 03:11:52;;;;;;;1.92;0.60;;;18.90;95.80;;;;;;5109763;28;20436;-72
2022/09/12 03:14:53;;;;;;;1.23;0.50;;;18.80;95.80;;;;;;5097250;28;20027;-71
2022/09/12 03:17:45;;;;;;;0.40;0.30;;;18.80;95.80;;;;;;5107694;28;20035;-71
2022/09/12 03:20:48;;;;;;;0.40;0.40;;;18.80;95.70;;;;;;5095334;28;20016;-71
2022/09/12 03:23:38;;;;;;;0.88;0.40;;;18.80;95.50;;;;;;5108391;28;20038;-72
2022/09/12 03:26:20;;;;;;;1.35;0.40;;;18.80;95.60;;;;;;5112353;28;20145;-71
2022/09/12 03:28:47;;;;;;;1.20;0.60;;;18.80;95.40;;;;;;5098757;28;20062;-72
2022/09/12 03:31:15;;;;;;;0.50;0.47;;;18.80;95.50;;;;;;5095609;28;20493;-72
2022/09/12 03:33:41;;;;;;;0.50;0.50;;;18.80;95.40;;;;;;5102738;28;20479;-72
2022/09/12 03:36:20;;;;;;;0.80;0.50;;;18.80;95.50;;;;;;5093274;28;20051;-71
2022/09/12 03:38:46;;;;;;;0.30;0.30;;;18.80;95.40;;;;;;5098502;28;20079;-71
2022/09/12 03:41:12;;;;;;;1.75;0.50;;;18.80;95.20;;;;;;5093921;28;20394;-71
2022/09/12 03:43:37;;;;;;;0.68;0.30;;;18.70;95.00;;;;;;5103252;27;20078;-72
2022/09/12 03:46:03;;;;;;;1.08;0.55;;;18.70;95.30;;;;;;5094064;28;20028;-71
2022/09/12 03:48:30;;;;;;;1.80;0.45;;;18.70;95.10;;;;;;5104205;27;20059;-71
2022/09/12 03:51:03;;;;;;;0.40;0.40;;;18.70;95.10;;;;;;5091524;28;20126;-72
2022/09/12 03:53:29;;;;;;;;;;;18.70;95.10;;;;;;5101366;28;20015;-72
2022/09/12 03:55:55;;;;;;;0.57;0.57;;;18.70;95.10;;;;;;5112508;28;20281;-71
2022/09/12 03:58:21;;;;;;;2.63;0.50;;;18.80;95.00;;;;;;5104255;28;20025;-72
2022/09/12 04:00:46;;;;;;;0.50;0.50;;;18.70;94.90;;;;;;5091900;28;20097;-72
2022/09/12 04:03:12;;;;;;;6.32;0.30;;;18.80;94.50;;;;;;5104973;28;20069;-72
2022/09/12 04:05:37;;;;;;;0.85;0.35;;;18.80;94.70;;;;;;5093273;28;20102;-71
2022/09/12 04:08:03;;;;;;;1.42;0.60;;;18.80;94.50;;;;;;5104491;28;20031;-72
2022/09/12 04:10:28;;;;;;;0.45;0.40;;;18.90;94.00;;;;;;5092990;28;20047;-72
2022/09/12 04:12:54;;;;;;;0.50;0.40;;;19.00;93.90;;;;;;5104251;28;20032;-71
2022/09/12 04:15:20;;;;;;;1.42;0.38;;;19.00;93.80;;;;;;5072453;28;20074;-72
2022/09/12 04:17:45;;;;;;;0.50;0.38;;;19.10;93.80;;;;;;5099439;28;20023;-72
2022/09/12 04:20:11;;;;;;;0.55;0.40;;;19.10;93.70;;;;;;5094083;28;20028;-71
2022/09/12 04:22:36;;;;;;;2.20;0.50;;;19.10;93.50;;;;;;5100564;28;20479;-72
2022/09/12 04:25:02;;;;;;;0.68;0.40;;;19.10;94.20;;;;;;5095209;28;20026;-71
2022/09/12 04:27:28;;;;;;;0.65;0.40;;;19.10;94.50;;;;;;5100268;28;20482;-72
2022/09/12 04:29:55;;;;;;;0.40;0.40;;;19.10;94.50;;;;;;5094409;28;20077;-72
2022/09/12 04:32:21;;;;;;;5.25;0.57;;;19.10;94.50;;;;;;5099303;28;20450;-71
2022/09/12 04:34:47;;;;;;;0.95;0.50;;;19.10;94.20;;;;;;5097012;28;20474;-72
2022/09/12 04:37:12;;;;;;;2.85;0.50;;;19.10;94.30;;;;;;5096777;28;20039;-71
2022/09/12 04:39:38;;;;;;;1.10;0.50;;;19.10;94.10;;;;;;5098266;28;20078;-72
2022/09/12 04:42:04;;;;;;;0.95;0.38;;;19.00;93.80;;;;;;5096764;28;20028;-72
2022/09/12 04:44:30;;;;;;;4.07;0.60;;;19.00;94.10;;;;;;5099242;28;20530;-72
2022/09/12 04:46:56;;;;;;;0.60;0.60;;;19.00;94.00;;;;;;5095415;28;20379;-71
2022/09/12 04:49:21;;;;;;;0.80;0.50;;;19.00;94.30;;;;;;5100435;28;20032;-72
2022/09/12 04:51:47;;;;;;;1.65;0.40;;;19.00;94.60;;;;;;5094296;28;20036;-72
2022/09/12 04:54:16;;;;;;;0.30;0.30;;;19.00;94.60;;;;;;5101232;28;20116;-72
2022/09/12 04:56:48;;;;;;;0.82;0.43;;;19.00;94.10;;;;;;5094505;28;20078;-71
2022/09/12 04:59:15;;;;;;;0.93;0.63;;;18.90;94.50;;;;;;5101056;28;20018;-72
2022/09/12 05:01:41;;;;;;;0.85;0.60;;;18.90;94.70;;;;;;5096096;28;20080;-72
2022/09/12 05:04:09;;;;;;;0.30;0.30;;;18.90;95.00;;;;;;5103263;28;20636;-72
2022/09/12 05:06:37;;;;;;;0.75;0.40;;;18.90;95.00;;;;;;5108132;28;20492;-72
2022/09/12 05:09:04;;;;;;;1.33;0.60;;;18.90;95.10;;;;;;5098926;28;20475;-72
2022/09/12 05:11:33;;;;;;;1.05;0.60;;;18.90;94.80;;;;;;5094528;28;20118;-72
2022/09/12 05:13:59;;;;;;;1.40;0.50;;;18.90;94.80;;;;;;5100806;28;20024;-71
2022/09/12 05:16:27;;;;;;;2.47;0.70;;;18.90;95.00;;;;;;5092985;28;20024;-72
2022/09/12 05:18:53;;;;;;;1.60;0.70;;;19.00;95.20;;;;;;5100775;28;20027;-72
2022/09/12 05:21:21;;;;;;;7.00;0.70;;;19.00;95.00;;;;;;5094507;28;20024;-72
2022/09/12 05:23:52;;;;;;;1.35;0.60;;;19.00;94.90;;;;;;5100539;28;20012;-72
2022/09/12 05:26:19;;;;;;;0.47;0.47;;;19.00;94.90;;;;;;5093939;28;20100;-72
2022/09/12 05:28:46;;;;;;;0.80;0.50;;;19.00;95.00;;;;;;5095619;28;20020;-72
2022/09/12 05:31:18;;;;;;;8.63;0.80;;;19.10;95.00;;;;;;5092486;28;20067;-71
2022/09/12 05:33:46;;;;;;;0.55;0.45;;;19.20;95.10;;;;;;5095980;28;20023;-71
2022/09/12 05:36:14;;;;;;;4.53;0.93;;;19.30;94.90;;;;;;5093068;28;20036;-71
2022/09/12 05:38:40;;;;;;;7.03;1.02;;;19.40;94.40;;;;;;5100637;28;20016;-72
2022/09/12 05:41:18;;;;;;;3.40;0.70;;;19.50;94.30;;;;;;5092189;28;20439;-72
2022/09/12 05:43:44;;;;;;;2.63;0.60;;;19.60;94.30;;;;;;5095929;28;20067;-72
2022/09/12 05:46:13;;;;;;;0.93;0.65;;;19.70;94.00;;;;;;5092324;28;20020;-72
2022/09/12 05:48:40;;;;;;;3.50;0.77;;;19.80;94.40;;;;;;5100527;28;20047;-72
2022/09/12 05:51:11;;;;;;;0.90;0.63;;;19.90;94.20;;;;;;5092079;28;20119;-71
2022/09/12 05:53:39;;;;;;;1.83;0.80;;;19.90;94.30;;;;;;5101098;28;20474;-71
2022/09/12 05:56:09;;;;;;;1.30;0.77;;;20.00;94.30;;;;;;5091849;28;20482;-72
2022/09/12 05:58:37;;;;;;;4.80;0.93;;;20.00;94.30;;;;;;5101175;28;20072;-71
2022/09/12 06:01:09;;;;;;;0.73;0.40;;;20.00;94.00;;;;;;5090786;28;20030;-72
2022/09/12 06:03:38;;;;;;;1.33;0.55;;;20.00;93.60;;;;;;5100866;28;20023;-72
2022/09/12 06:06:05;;;;;;;5.18;0.70;;;20.00;93.70;;;;;;5109519;28;20576;-72
2022/09/12 06:08:32;;;;;;;4.72;0.80;;;20.00;93.50;;;;;;5101615;28;20436;-72
2022/09/12 06:11:00;;;;;;;0.43;0.43;;;19.90;93.80;;;;;;5091230;28;20032;-72
2022/09/12 06:13:25;;;;;;;0.80;0.38;;;19.80;93.60;;;;;;5101638;28;20166;-72
2022/09/12 06:15:51;;;;;;;1.38;0.50;;;19.90;93.30;;;;;;5090848;28;20032;-76
2022/09/12 06:18:16;;;;;;;1.75;0.57;;;19.90;93.60;;;;;;5102399;28;20024;-73
2022/09/12 06:20:42;;;;;;;2.15;0.60;;;19.90;93.70;;;;;;5090327;28;20028;-73
2022/09/12 06:23:07;;;;;;;4.57;1.10;;;19.90;93.90;;;;;;5102292;28;20034;-73
2022/09/12 06:25:33;;;;;;;5.28;1.05;;;20.00;93.80;;;;;;5090931;28;20109;-72
2022/09/12 06:28:00;;;;;;;3.08;0.90;;;20.00;93.80;;;;;;5102210;28;20012;-73
2022/09/12 06:30:26;;;;;;;4.40;0.93;;;20.10;93.90;;;;;;5090577;28;20166;-73
2022/09/12 06:32:52;;;;;;;3.00;0.65;;;20.10;93.60;;;;;;5095281;28;20032;-72
2022/09/12 06:35:18;;;;;;;2.10;0.75;;;20.10;94.10;;;;;;5110841;28;20126;-72
2022/09/12 06:37:44;;;;;;;3.97;0.52;;;20.10;94.70;;;;;;5103972;28;20097;-72
2022/09/12 06:40:11;;;;;;;3.13;0.73;;;20.10;94.40;;;;;;5092028;28;20012;-72
2022/09/12 06:42:36;;;;;;;1.33;0.70;;;20.10;94.70;;;;;;5098159;28;20070;-73
2022/09/12 06:45:02;;;;;;;3.60;0.80;;;20.10;94.50;;;;;;5092989;28;20266;-72
2022/09/12 06:47:28;;;;;;;4.00;0.77;;;20.10;94.70;;;;;;5098292;28;20089;-72
2022/09/12 06:49:53;;;;;;;3.70;0.88;;;20.10;94.30;;;;;;5092797;28;20505;-72
2022/09/12 06:52:19;;;;;;;3.92;0.75;;;20.10;94.00;;;;;;5097349;28;20055;-71
2022/09/12 06:54:46;;;;;;;0.40;0.40;;;20.10;94.20;;;;;;5095358;28;20526;-73
2022/09/12 06:57:11;;;;;;;1.50;0.60;;;20.20;94.20;;;;;;5095264;28;20023;-72
2022/09/12 06:59:37;;;;;;;1.15;0.60;;;20.30;94.40;;;;;;5096315;28;20101;-72
2022/09/12 07:02:03;;;;;;;0.98;0.52;;;20.30;94.20;;;;;;5095837;28;20601;-72
2022/09/12 07:04:29;;;;;;;0.55;0.55;;;20.40;94.20;;;;;;5102487;28;20023;-72
2022/09/12 07:06:54;;;;;;;0.70;0.50;;;20.50;94.10;;;;;;5104499;28;20119;-72
2022/09/12 07:09:20;;;;;;;1.50;0.50;;;20.50;93.60;;;;;;5098649;28;20055;-72
2022/09/12 07:11:46;;;;;;;1.42;0.55;;;20.60;92.80;;;;;;5092877;28;20081;-72
2022/09/12 07:14:13;;;;;;;1.85;0.68;;;20.60;91.90;;;;;;5098672;28;20020;-73
2022/09/12 07:16:38;;;;;;;3.45;0.70;;;20.60;92.90;;;;;;5092870;28;20054;-72
2022/09/12 07:19:06;;;;;;;7.80;1.13;;;20.60;93.10;;;;;;5099187;28;20502;-72
2022/09/12 07:21:38;;;;;;;4.07;1.05;;;20.70;92.20;;;;;;5091701;28;20020;-73
2022/09/12 07:24:04;;;;;;;14.25;1.40;;;20.70;92.40;;;;;;5099276;28;20020;-72
2022/09/12 07:26:30;;;;;;;4.80;0.85;;;20.70;92.40;;;;;;5095426;28;20636;-73
2022/09/12 07:28:58;;;;;;;4.03;0.60;;;20.80;92.40;;;;;;5101581;28;20036;-72
2022/09/12 07:31:25;;;;;;;1.48;0.60;;;20.80;92.00;;;;;;5095092;28;20039;-72
2022/09/12 07:33:51;;;;;;;3.15;0.47;;;20.90;91.70;;;;;;5105191;28;20103;-72
2022/09/12 07:36:22;;;;;;;0.20;0.20;;;20.90;91.90;;;;;;5112287;27;20165;-72
2022/09/12 07:38:52;;;;;;;1.25;0.38;;;21.00;91.70;;;;;;5098852;28;20016;-72
2022/09/12 07:41:20;;;;;;;2.83;0.50;;;21.10;91.60;;;;;;5095928;28;20444;-72
2022/09/12 07:43:46;;;;;;;0.90;0.50;;;21.20;90.70;;;;;;5098274;28;20028;-73
2022/09/12 07:46:13;;;;;;;1.33;0.70;;;21.30;91.30;;;;;;5095373;28;20031;-72
2022/09/12 07:48:39;;;;;;;1.25;0.60;;;21.30;91.90;;;;;;5101634;28;20091;-72
2022/09/12 07:51:07;;;;;;;1.60;0.75;;;21.30;91.90;;;;;;5093634;28;20032;-72
2022/09/12 07:53:37;;;;;;;2.10;0.60;;;21.40;91.80;;;;;;5103818;28;20103;-72
2022/09/12 07:56:04;;;;;;;2.30;0.55;;;21.50;91.50;;;;;;5093621;28;20047;-72
2022/09/12 07:58:31;;;;;;;4.18;0.77;;;21.50;91.00;;;;;;5104135;28;20017;-72
2022/09/12 08:01:12;;;;;;;0.43;0.38;;;21.60;91.30;;;;;;5092530;28;20042;-72
2022/09/12 08:03:39;;;;;;;16.10;0.77;;;21.70;90.90;;;;;;5101663;28;20023;-72
2022/09/12 08:06:07;;;;;;;3.75;0.75;;;21.70;90.10;;;;;;5111050;28;20031;-72
2022/09/12 08:08:33;;;;;;;1.75;0.60;;;21.80;90.90;;;;;;5103647;28;20021;-72
2022/09/12 08:11:00;;;;;;;2.72;0.52;;;21.90;91.20;;;;;;5092157;28;20449;-72
2022/09/12 08:13:29;;;;;;;0.90;0.55;;;22.00;91.60;;;;;;5104084;28;20089;-72
2022/09/12 08:16:12;;;;;;;2.58;0.50;;;22.10;91.20;;;;;;5093254;28;20032;-72
2022/09/12 08:18:38;;;;;;;3.00;0.40;;;22.20;90.50;;;;;;5102603;28;20072;-72
2022/09/12 08:21:07;;;;;;;0.52;0.50;;;22.30;90.00;;;;;;5110145;28;20024;-73
2022/09/12 08:23:33;;;;;;;1.85;0.60;;;22.40;90.30;;;;;;5103335;28;20478;-72
2022/09/12 08:26:01;;;;;;;0.73;0.57;;;22.50;89.90;;;;;;5092596;28;20028;-72
2022/09/12 08:28:28;;;;;;;3.08;0.73;;;22.50;87.70;;;;;;5103765;28;20016;-72
2022/09/12 08:30:59;;;;;;;16.98;1.52;;;22.60;86.30;;;;;;5102114;28;20058;-72
2022/09/12 08:33:31;;;;;;;6.70;1.00;;;22.60;87.40;;;;;;5103301;28;20430;-72
2022/09/12 08:36:05;;;;;;;5.20;1.08;;;22.60;88.10;;;;;;5091100;28;20364;-72
2022/09/12 08:38:33;;;;;;;7.53;0.68;;;22.70;88.90;;;;;;5107692;27;20127;-73
2022/09/12 08:41:06;;;;;;;6.75;0.77;;;22.80;89.40;;;;;;5074330;28;20024;-73
2022/09/12 08:43:31;;;;;;;2.58;0.80;;;22.90;87.80;;;;;;5099799;28;20039;-73
2022/09/12 08:46:22;;;;;;;3.00;0.57;;;23.00;87.10;;;;;;5111638;28;20019;-73
2022/09/12 08:48:50;;;;;;;9.65;1.10;;;23.20;87.70;;;;;;5097410;28;20048;-73
2022/09/12 08:51:19;;;;;;;3.22;0.88;;;23.40;86.00;;;;;;5093435;28;20034;-73
2022/09/12 08:53:47;;;;;;;4.55;0.93;;;23.50;85.60;;;;;;5109396;27;20498;-73
2022/09/12 08:56:14;;;;;;;1.50;0.65;;;23.60;84.60;;;;;;5076016;28;20030;-73
2022/09/12 08:58:42;;;;;;;1.13;0.77;;;23.70;83.10;;;;;;5101529;28;20028;-73
2022/09/12 09:01:28;;;;;;;12.43;1.67;;;23.80;85.90;;;;;;5091271;28;20028;-73
2022/09/12 09:04:00;;;;;;;6.80;1.50;;;23.70;86.30;;;;;;5097890;28;20035;-73
2022/09/12 09:07:11;;;;;;;12.18;1.00;;;23.70;87.80;;;;;;5094505;28;20024;-73
2022/09/12 09:09:54;;;;;;;4.97;1.40;;;23.70;86.10;;;;;;5104020;28;20069;-73
2022/09/12 09:12:28;;;;;;;7.57;1.00;;;23.70;84.50;;;;;;5104457;28;20139;-73
2022/09/12 09:15:13;;;;;;;4.15;0.90;;;23.70;85.90;;;;;;5094180;28;20028;-73
2022/09/12 09:17:44;;;;;;;3.10;0.60;;;23.60;87.20;;;;;;5099178;28;20040;-73
2022/09/12 09:20:29;;;;;;;5.70;1.13;;;23.60;85.30;;;;;;5093109;28;20039;-73
2022/09/12 09:22:55;;;;;;;5.97;0.90;;;23.60;86.00;;;;;;5102127;28;20096;-73
2022/09/12 09:25:49;;;;;;;3.67;1.00;;;23.70;85.90;;;;;;5091504;28;20498;-73
2022/09/12 09:28:50;;;;;;;5.72;0.90;;;23.70;84.20;;;;;;5083068;28;20040;-73
2022/09/12 09:31:22;;;;;;;4.75;0.70;;;23.70;84.30;;;;;;5093684;28;20028;-73
2022/09/12 09:33:52;;;;;;;1.95;0.82;;;23.70;85.60;;;;;;5102766;28;20023;-72
2022/09/12 09:36:38;;;;;;;3.78;0.85;;;23.70;84.60;;;;;;5108124;28;20035;-73
2022/09/12 09:39:10;;;;;;;1.40;0.80;;;23.70;84.10;;;;;;5095811;28;20056;-73
2022/09/12 09:42:15;;;;;;;0.90;0.85;;;23.70;86.60;;;;;;5079360;28;20030;-73
2022/09/12 09:44:42;;;;;;;1.58;1.17;;;23.60;88.90;;;;;;5100800;28;20019;-73
2022/09/12 09:47:10;;;;;;;1.00;0.90;;;23.60;87.90;;;;;;5104899;28;20035;-73
2022/09/12 09:49:36;;;;;;;4.60;1.15;;;23.60;88.50;;;;;;5096912;28;20027;-73
2022/09/12 09:52:04;;;;;;;3.03;0.90;;;23.50;88.30;;;;;;5095115;28;20186;-73
2022/09/12 09:54:42;;;;;;;2.40;0.90;;;23.50;86.50;;;;;;5097914;28;20081;-72
2022/09/12 09:57:41;;;;;;;1.65;0.70;;;23.50;88.00;;;;;;5096232;28;20444;-73
2022/09/12 10:00:31;;;;;;;1.75;0.80;;;23.60;87.90;;;;;;5043593;28;20036;-73
2022/09/12 10:02:57;;;;;;;1.45;0.90;;;23.70;87.90;;;;;;5090157;28;20486;-73
2022/09/12 10:05:23;;;;;;;2.92;0.70;;;23.70;87.20;;;;;;5110188;28;20062;-74
2022/09/12 10:07:50;;;;;;;1.65;0.80;;;23.80;88.90;;;;;;5101354;28;20038;-73
2022/09/12 10:10:18;;;;;;;1.48;0.55;;;23.90;88.20;;;;;;5110377;28;20039;-73
2022/09/12 10:12:44;;;;;;;0.75;0.50;;;23.80;87.10;;;;;;5103529;28;20047;-73
2022/09/12 10:15:27;;;;;;;1.23;0.40;;;23.80;89.20;;;;;;5092299;28;20067;-73
2022/09/12 10:17:54;;;;;;;3.50;0.70;;;23.90;89.90;;;;;;5102309;28;20569;-73
2022/09/12 10:20:46;;;;;;;4.22;0.50;;;24.00;89.00;;;;;;5070761;28;20051;-74
2022/09/12 10:23:30;;;;;;;3.25;0.70;;;24.00;86.50;;;;;;5095949;28;20032;-73
2022/09/12 10:26:00;;;;;;;0.85;0.47;;;24.20;83.70;;;;;;5110100;28;20016;-73
2022/09/12 10:28:49;;;;;;;1.27;0.52;;;24.30;83.50;;;;;;5099647;28;20016;-73
2022/09/12 10:31:27;;;;;;;0.98;0.50;;;24.30;83.20;;;;;;5098735;28;20043;-73
2022/09/12 10:33:54;;;;;;;0.32;0.30;;;24.30;82.30;;;;;;5096466;28;20471;-72
2022/09/12 10:36:22;;;;;;;0.30;0.30;;;24.50;80.80;;;;;;5091928;28;20419;-73
2022/09/12 10:38:54;;;;;;;0.85;0.43;;;24.50;81.20;;;;;;5099733;28;20108;-74
2022/09/12 10:41:23;;;;;;;;;;;24.50;80.00;;;;;;5093906;28;20024;-73
2022/09/12 10:43:49;;;;;;;0.73;0.22;;;24.60;80.50;;;;;;5101944;28;19904;-73
2022/09/12 10:46:15;;;;;;;0.38;0.38;;;24.60;77.60;;;;;;5109329;28;20508;-73
2022/09/12 10:48:42;;;;;;;0.32;0.32;;;24.60;81.20;;;;;;5099502;28;20147;-73
2022/09/12 10:51:23;;;;;;;0.32;0.30;;;24.60;80.70;;;;;;5091253;28;20039;-73
2022/09/12 10:53:50;;;;;;;0.85;0.52;;;24.60;81.60;;;;;;5095638;28;20028;-73
2022/09/12 10:56:23;;;;;;;0.93;0.68;;;24.70;84.60;;;;;;5092164;28;20093;-73
2022/09/12 10:58:54;;;;;;;1.35;0.30;;;24.70;80.40;;;;;;5096047;28;20051;-73
2022/09/12 11:01:32;;;;;;;4.78;0.50;;;24.70;81.30;;;;;;5096961;28;20020;-72
2022/09/12 11:04:40;;;;;;;0.57;0.35;;;24.90;80.10;;;;;;5102068;28;20047;-72
2022/09/12 11:07:36;;;;;;;0.22;0.22;;;25.00;80.80;;;;;;5106871;28;20479;-73
2022/09/12 11:10:15;;;;;;;0.28;0.28;;;24.90;80.30;;;;;;5096585;28;20081;-73
2022/09/12 11:13:01;;;;;;;0.73;0.20;;;25.00;80.30;;;;;;5103739;28;20027;-73
2022/09/12 11:15:57;;;;;;;0.20;0.20;;;25.10;77.10;;;;;;5073921;28;20027;-72
2022/09/12 11:18:31;;;;;;;2.35;0.45;;;25.00;78.50;;;;;;5104640;28;20127;-72
2022/09/12 11:21:08;;;;;;;4.30;0.52;;;25.00;79.10;;;;;;5094609;28;20020;-73
2022/09/12 11:23:55;;;;;;;0.30;0.30;;;24.90;78.90;;;;;;5102656;28;20047;-72
2022/09/12 11:26:57;;;;;;;0.50;0.43;;;24.90;77.80;;;;;;5111999;28;20112;-73
2022/09/12 11:29:44;;;;;;;0.77;0.47;;;24.90;77.60;;;;;;5098042;28;20015;-73
2022/09/12 11:32:49;;;;;;;0.25;0.25;;;24.90;79.70;;;;;;5080282;28;20680;-73
2022/09/12 11:35:14;;;;;;;0.20;0.20;;;25.00;78.80;;;;;;5007385;28;20028;-73
2022/09/12 11:37:56;;;;;;;4.13;0.40;;;25.00;79.50;;;;;;5098864;28;20039;-73
2022/09/12 11:40:49;;;;;;;0.30;0.30;;;25.00;79.50;;;;;;5073546;28;20044;-72
2022/09/12 11:43:28;;;;;;;1.17;0.50;;;25.10;79.50;;;;;;5104801;28;20107;-73
2022/09/12 11:45:58;;;;;;;25.13;20.88;;;25.00;80.70;;;;;;5093990;28;20020;-72
2022/09/12 11:48:43;;;;;;;93.22;73.95;;;25.00;82.00;;;;;;5103297;28;20044;-72
2022/09/12 11:51:18;;;;;;;15.68;10.85;;;25.10;82.00;;;;;;5093222;28;20576;-72
2022/09/12 11:53:52;;;;;;;63.00;50.90;;;25.30;80.70;;;;;;5097980;28;20039;-73
2022/09/12 11:56:17;;;;;;;17.95;10.25;;;25.30;81.00;;;;;;5095852;28;20111;-73
2022/09/12 11:58:54;;;;;;;7.38;3.92;;;25.20;81.20;;;;;;5100714;28;20100;-73
2022/09/12 12:01:25;;;;;;;12.35;3.40;;;25.20;82.70;;;;;;5095805;28;20427;-72
2022/09/12 12:03:54;;;;;;;9.05;2.70;;;25.20;80.60;;;;;;5100811;28;20112;-73
2022/09/12 12:07:01;;;;;;;2.80;0.50;;;25.30;82.10;;;;;;5095363;28;20106;-73
2022/09/12 12:09:27;;;;;;;20.80;9.20;;;25.70;79.00;;;;;;5043269;28;20091;-72
2022/09/12 12:11:56;;;;;;;2.08;1.02;;;26.80;77.10;;;;;;5080178;28;20036;-73
2022/09/12 12:14:44;;;;;;;8.20;1.67;;;28.10;73.50;;;;;;5101236;28;20020;-73
2022/09/12 12:17:16;;;;;;;21.13;14.85;;;29.20;71.50;;;;;;5097694;28;20387;-73
2022/09/12 12:19:42;;;;;;;3.22;2.83;;;30.40;68.80;;;;;;5113464;28;20080;-73
2022/09/12 12:22:23;;;;;;;10.32;7.72;;;31.30;66.80;;;;;;5106527;28;20094;-73
2022/09/12 12:25:00;;;;;;;3.08;2.28;;;32.30;66.60;;;;;;5097217;28;20048;-73
2022/09/12 12:27:44;;;;;;;4.03;1.10;;;33.30;63.10;;;;;;5100121;28;20119;-74
2022/09/12 12:30:28;;;;;;;3.65;3.03;;;34.10;61.70;;;;;;5092670;28;20020;-73
2022/09/12 12:33:26;;;;;;;2.55;1.20;;;34.10;60.00;;;;;;5103968;28;20412;-74
2022/09/12 12:35:58;;;;;;;2.95;1.10;;;34.70;60.40;;;;;;5072762;28;20035;-73
2022/09/12 12:38:30;;;;;;;23.45;13.77;;;35.30;58.10;;;;;;5103169;28;20024;-74
2022/09/12 12:41:15;;;;;;;2.33;1.55;;;35.70;57.20;;;;;;5093129;28;20112;-74
2022/09/12 12:43:41;;;;;;;22.50;15.88;;;35.70;57.00;;;;;;5102164;28;20035;-73
2022/09/12 12:46:12;;;;;;;5.68;3.00;;;36.30;56.00;;;;;;5111573;28;20077;-74
2022/09/12 12:48:50;;;;;;;;;;;36.80;56.70;;;;;;5102923;28;20097;-75
2022/09/12 12:51:32;;;;;;;0.82;0.60;;;36.90;55.90;;;;;;5109539;28;20302;-75
2022/09/12 12:54:03;;;;;;;0.70;0.55;;;38.20;53.70;;;;;;5098657;28;20542;-75
2022/09/12 12:56:34;;;;;;;6.32;3.05;;;38.80;52.30;;;;;;5094679;28;20023;-74
2022/09/12 12:59:04;;;;;;;1.93;0.87;;;38.60;52.00;;;;;;5101092;28;20447;-75
2022/09/12 13:01:31;;;;;;;2.03;0.60;;;38.90;52.30;;;;;;5094243;28;20047;-75
2022/09/12 13:04:11;;;;;;;1.48;1.38;;;39.40;51.70;;;;;;5100966;28;20505;-73
2022/09/12 13:06:38;;;;;;;5.22;3.53;;;40.50;51.30;;;;;;5094482;28;20478;-73
2022/09/12 13:09:30;;;;;;;7.57;5.10;;;40.60;48.00;;;;;;5099630;28;20028;-72
2022/09/12 13:12:16;;;;;;;1.25;1.15;;;40.40;48.10;;;;;;5085343;28;20278;-74
2022/09/12 13:14:41;;;;;;;2.17;0.90;;;39.40;47.50;;;;;;5095964;28;20387;-75
2022/09/12 13:17:17;;;;;;;2.22;2.03;;;38.70;49.20;;;;;;5096611;28;20169;-75